Terminal Aerodrome Forecast
Issued by NWS Des Moines, IA

Home | Current Version | Previous Version | Text Only | Print | Product List | Glossary On
Versions: 1 2 3 4 5 6 7 8 9 10 11 12 13 14 15 16 17 18 19 20 21 22 23 24 25 26 27 28 29 30 31 32 33 34
000
FTUS43 KDMX 010535
TAFDSM
TAF
KDSM 010535Z 0106/0206 05006KT P6SM OVC025
     FM011000 VRB04KT 6SM BR OVC008
     FM011900 36006KT P6SM SCT009 OVC020=

USA.gov is the U.S. government's official web portal to all federal, state and local government web resources and services.